sensor_id;sensor_type;location;lat;lon;timestamp;temperature;humidity
75262;DHT22;63859;51.064;4.580;2023-11-18T00:00:23;5.90;99.90
75262;DHT22;63859;51.064;4.580;2023-11-18T00:02:49;5.90;99.90
75262;DHT22;63859;51.064;4.580;2023-11-18T00:05:15;5.90;99.90
75262;DHT22;63859;51.064;4.580;2023-11-18T00:07:41;5.90;99.90
75262;DHT22;63859;51.064;4.580;2023-11-18T00:10:07;5.90;99.90
75262;DHT22;63859;51.064;4.580;2023-11-18T00:12:34;5.90;99.90
75262;DHT22;63859;51.064;4.580;2023-11-18T00:15:07;5.90;99.90
75262;DHT22;63859;51.064;4.580;2023-11-18T00:17:34;5.90;99.90
75262;DHT22;63859;51.064;4.580;2023-11-18T00:20:01;5.90;99.90
75262;DHT22;63859;51.064;4.580;2023-11-18T00:22:28;5.90;99.90
75262;DHT22;63859;51.064;4.580;2023-11-18T00:24:53;5.80;99.90
75262;DHT22;63859;51.064;4.580;2023-11-18T00:27:20;5.90;99.90
75262;DHT22;63859;51.064;4.580;2023-11-18T00:29:48;5.90;99.90
75262;DHT22;63859;51.064;4.580;2023-11-18T00:32:13;5.80;99.90
75262;DHT22;63859;51.064;4.580;2023-11-18T00:34:39;5.80;99.90
75262;DHT22;63859;51.064;4.580;2023-11-18T00:37:05;5.90;99.90
75262;DHT22;63859;51.064;4.580;2023-11-18T00:39:30;5.90;99.90
75262;DHT22;63859;51.064;4.580;2023-11-18T00:41:56;5.90;99.90
75262;DHT22;63859;51.064;4.580;2023-11-18T00:44:22;5.90;99.90
75262;DHT22;63859;51.064;4.580;2023-11-18T00:46:47;5.80;99.90
75262;DHT22;63859;51.064;4.580;2023-11-18T00:49:13;5.80;99.90
75262;DHT22;63859;51.064;4.580;2023-11-18T00:51:39;5.80;99.90
75262;DHT22;63859;51.064;4.580;2023-11-18T00:54:06;5.80;99.90
75262;DHT22;63859;51.064;4.580;2023-11-18T00:56:32;5.80;99.90
75262;DHT22;63859;51.064;4.580;2023-11-18T00:58:58;5.80;99.90
75262;DHT22;63859;51.064;4.580;2023-11-18T01:01:24;5.80;99.90
75262;DHT22;63859;51.064;4.580;2023-11-18T01:03:49;5.90;99.90
75262;DHT22;63859;51.064;4.580;2023-11-18T01:06:15;5.90;99.90
75262;DHT22;63859;51.064;4.580;2023-11-18T01:08:44;5.90;99.90
75262;DHT22;63859;51.064;4.580;2023-11-18T01:11:10;5.90;99.90
75262;DHT22;63859;51.064;4.580;2023-11-18T01:13:36;5.90;99.90
75262;DHT22;63859;51.064;4.580;2023-11-18T01:16:02;5.90;99.90
75262;DHT22;63859;51.064;4.580;2023-11-18T01:18:29;5.80;99.90
75262;DHT22;63859;51.064;4.580;2023-11-18T01:20:55;5.90;99.90
75262;DHT22;63859;51.064;4.580;2023-11-18T01:23:21;5.90;99.90
75262;DHT22;63859;51.064;4.580;2023-11-18T01:25:47;5.90;99.90
75262;DHT22;63859;51.064;4.580;2023-11-18T01:28:15;5.90;99.90
75262;DHT22;63859;51.064;4.580;2023-11-18T01:30:41;5.90;99.90
75262;DHT22;63859;51.064;4.580;2023-11-18T01:33:10;5.80;99.90
75262;DHT22;63859;51.064;4.580;2023-11-18T01:35:36;5.80;99.90
75262;DHT22;63859;51.064;4.580;2023-11-18T01:38:02;5.90;99.90
75262;DHT22;63859;51.064;4.580;2023-11-18T01:40:28;5.90;99.90
75262;DHT22;63859;51.064;4.580;2023-11-18T01:42:56;5.90;99.90
75262;DHT22;63859;51.064;4.580;2023-11-18T01:45:22;5.90;99.90
75262;DHT22;63859;51.064;4.580;2023-11-18T01:47:48;5.90;99.90
75262;DHT22;63859;51.064;4.580;2023-11-18T01:50:15;5.90;99.90
75262;DHT22;63859;51.064;4.580;2023-11-18T01:52:41;5.80;99.90
75262;DHT22;63859;51.064;4.580;2023-11-18T01:55:07;5.80;99.90
75262;DHT22;63859;51.064;4.580;2023-11-18T01:57:34;5.80;99.90
75262;DHT22;63859;51.064;4.580;2023-11-18T02:00:00;5.80;99.90
75262;DHT22;63859;51.064;4.580;2023-11-18T02:02:31;5.80;99.90
75262;DHT22;63859;51.064;4.580;2023-11-18T02:04:58;5.80;99.90
75262;DHT22;63859;51.064;4.580;2023-11-18T02:07:24;5.80;99.90
75262;DHT22;63859;51.064;4.580;2023-11-18T02:09:50;5.80;99.90
75262;DHT22;63859;51.064;4.580;2023-11-18T02:14:46;5.70;99.90
75262;DHT22;63859;51.064;4.580;2023-11-18T02:17:14;5.70;99.90
75262;DHT22;63859;51.064;4.580;2023-11-18T02:19:42;5.80;99.90
75262;DHT22;63859;51.064;4.580;2023-11-18T02:22:09;5.80;99.90
75262;DHT22;63859;51.064;4.580;2023-11-18T02:24:36;5.80;99.90
75262;DHT22;63859;51.064;4.580;2023-11-18T02:27:03;5.70;99.90
75262;DHT22;63859;51.064;4.580;2023-11-18T02:29:36;5.70;99.90
75262;DHT22;63859;51.064;4.580;2023-11-18T02:34:40;5.70;99.90
75262;DHT22;63859;51.064;4.580;2023-11-18T02:37:09;5.70;99.90
75262;DHT22;63859;51.064;4.580;2023-11-18T02:39:48;5.70;99.90
75262;DHT22;63859;51.064;4.580;2023-11-18T02:42:16;5.70;99.90
75262;DHT22;63859;51.064;4.580;2023-11-18T02:44:43;5.80;99.90
75262;DHT22;63859;51.064;4.580;2023-11-18T02:47:10;5.70;99.90
75262;DHT22;63859;51.064;4.580;2023-11-18T02:49:36;5.70;99.90
75262;DHT22;63859;51.064;4.580;2023-11-18T02:52:02;5.70;99.90
75262;DHT22;63859;51.064;4.580;2023-11-18T02:54:28;5.70;99.90
75262;DHT22;63859;51.064;4.580;2023-11-18T02:56:54;5.70;99.90
75262;DHT22;63859;51.064;4.580;2023-11-18T02:59:20;5.70;99.90
75262;DHT22;63859;51.064;4.580;2023-11-18T03:01:45;5.70;99.90
75262;DHT22;63859;51.064;4.580;2023-11-18T03:04:11;5.70;99.90
75262;DHT22;63859;51.064;4.580;2023-11-18T03:06:39;5.70;99.90
75262;DHT22;63859;51.064;4.580;2023-11-18T03:09:06;5.70;99.90
75262;DHT22;63859;51.064;4.580;2023-11-18T03:11:33;5.70;99.90
75262;DHT22;63859;51.064;4.580;2023-11-18T03:13:59;5.70;99.90
75262;DHT22;63859;51.064;4.580;2023-11-18T03:16:25;5.70;99.90
75262;DHT22;63859;51.064;4.580;2023-11-18T03:18:51;5.70;99.90
75262;DHT22;63859;51.064;4.580;2023-11-18T03:21:17;5.70;99.90
75262;DHT22;63859;51.064;4.580;2023-11-18T03:23:42;5.70;99.90
75262;DHT22;63859;51.064;4.580;2023-11-18T03:26:09;5.70;99.90
75262;DHT22;63859;51.064;4.580;2023-11-18T03:28:38;5.70;99.90
75262;DHT22;63859;51.064;4.580;2023-11-18T03:31:06;5.70;99.90
75262;DHT22;63859;51.064;4.580;2023-11-18T03:33:32;5.70;99.90
75262;DHT22;63859;51.064;4.580;2023-11-18T03:35:58;5.70;99.90
75262;DHT22;63859;51.064;4.580;2023-11-18T03:38:24;5.70;99.90
75262;DHT22;63859;51.064;4.580;2023-11-18T03:40:50;5.70;99.90
75262;DHT22;63859;51.064;4.580;2023-11-18T03:43:18;5.70;99.90
75262;DHT22;63859;51.064;4.580;2023-11-18T03:45:43;5.70;99.90
75262;DHT22;63859;51.064;4.580;2023-11-18T03:48:09;5.70;99.90
75262;DHT22;63859;51.064;4.580;2023-11-18T03:50:40;5.80;99.90
75262;DHT22;63859;51.064;4.580;2023-11-18T03:53:05;5.70;99.90
75262;DHT22;63859;51.064;4.580;2023-11-18T03:55:31;5.70;99.90
75262;DHT22;63859;51.064;4.580;2023-11-18T03:57:57;5.70;99.90
75262;DHT22;63859;51.064;4.580;2023-11-18T04:00:23;5.80;99.90
75262;DHT22;63859;51.064;4.580;2023-11-18T04:02:56;5.80;99.90
75262;DHT22;63859;51.064;4.580;2023-11-18T04:05:25;5.80;99.90
75262;DHT22;63859;51.064;4.580;2023-11-18T04:07:50;5.70;99.90
75262;DHT22;63859;51.064;4.580;2023-11-18T04:10:17;5.70;99.90
75262;DHT22;63859;51.064;4.580;2023-11-18T04:12:44;5.70;99.90
75262;DHT22;63859;51.064;4.580;2023-11-18T04:15:12;5.70;99.90
75262;DHT22;63859;51.064;4.580;2023-11-18T04:17:38;5.80;99.90
75262;DHT22;63859;51.064;4.580;2023-11-18T04:20:04;5.80;99.90
75262;DHT22;63859;51.064;4.580;2023-11-18T04:22:40;5.80;99.90
75262;DHT22;63859;51.064;4.580;2023-11-18T04:25:08;5.80;99.90
75262;DHT22;63859;51.064;4.580;2023-11-18T04:27:33;5.80;99.90
75262;DHT22;63859;51.064;4.580;2023-11-18T04:29:59;5.80;99.90
75262;DHT22;63859;51.064;4.580;2023-11-18T04:32:25;5.80;99.90
75262;DHT22;63859;51.064;4.580;2023-11-18T04:34:50;5.80;99.90
75262;DHT22;63859;51.064;4.580;2023-11-18T04:37:17;5.80;99.90
75262;DHT22;63859;51.064;4.580;2023-11-18T04:39:43;5.80;99.90
75262;DHT22;63859;51.064;4.580;2023-11-18T04:42:08;5.80;99.90
75262;DHT22;63859;51.064;4.580;2023-11-18T04:44:34;5.80;99.90
75262;DHT22;63859;51.064;4.580;2023-11-18T04:47:00;5.80;99.90
75262;DHT22;63859;51.064;4.580;2023-11-18T04:49:26;5.90;99.90
75262;DHT22;63859;51.064;4.580;2023-11-18T04:51:52;5.90;99.90
75262;DHT22;63859;51.064;4.580;2023-11-18T04:54:17;5.90;99.90
75262;DHT22;63859;51.064;4.580;2023-11-18T04:56:45;5.90;99.90
75262;DHT22;63859;51.064;4.580;2023-11-18T04:59:10;5.90;99.90
75262;DHT22;63859;51.064;4.580;2023-11-18T05:01:36;5.90;99.90
75262;DHT22;63859;51.064;4.580;2023-11-18T05:04:03;5.90;99.90
75262;DHT22;63859;51.064;4.580;2023-11-18T05:06:29;6.00;99.90
75262;DHT22;63859;51.064;4.580;2023-11-18T05:08:55;6.00;99.90
75262;DHT22;63859;51.064;4.580;2023-11-18T05:11:20;6.00;99.90
75262;DHT22;63859;51.064;4.580;2023-11-18T05:13:46;6.00;99.90
75262;DHT22;63859;51.064;4.580;2023-11-18T05:16:11;6.00;99.90
75262;DHT22;63859;51.064;4.580;2023-11-18T05:18:37;6.10;99.90
75262;DHT22;63859;51.064;4.580;2023-11-18T05:21:04;6.10;99.90
75262;DHT22;63859;51.064;4.580;2023-11-18T05:23:31;6.10;99.90
75262;DHT22;63859;51.064;4.580;2023-11-18T05:25:57;6.10;99.90
75262;DHT22;63859;51.064;4.580;2023-11-18T05:28:26;6.10;99.90
75262;DHT22;63859;51.064;4.580;2023-11-18T05:30:52;6.20;99.90
75262;DHT22;63859;51.064;4.580;2023-11-18T05:33:18;6.20;99.90
75262;DHT22;63859;51.064;4.580;2023-11-18T05:35:45;6.20;99.90
75262;DHT22;63859;51.064;4.580;2023-11-18T05:38:15;6.10;99.90
75262;DHT22;63859;51.064;4.580;2023-11-18T05:40:44;6.20;99.90
75262;DHT22;63859;51.064;4.580;2023-11-18T05:43:22;6.20;99.90
75262;DHT22;63859;51.064;4.580;2023-11-18T05:45:47;6.20;99.90
75262;DHT22;63859;51.064;4.580;2023-11-18T05:48:31;6.20;99.90
75262;DHT22;63859;51.064;4.580;2023-11-18T05:50:57;6.20;99.90
75262;DHT22;63859;51.064;4.580;2023-11-18T05:53:23;6.30;99.90
75262;DHT22;63859;51.064;4.580;2023-11-18T05:55:48;6.30;99.90
75262;DHT22;63859;51.064;4.580;2023-11-18T05:58:15;6.30;99.90
75262;DHT22;63859;51.064;4.580;2023-11-18T06:00:40;6.30;99.90
75262;DHT22;63859;51.064;4.580;2023-11-18T06:03:06;6.30;99.90
75262;DHT22;63859;51.064;4.580;2023-11-18T06:05:32;6.30;99.90
75262;DHT22;63859;51.064;4.580;2023-11-18T06:08:00;6.30;99.90
75262;DHT22;63859;51.064;4.580;2023-11-18T06:10:26;6.30;99.90
75262;DHT22;63859;51.064;4.580;2023-11-18T06:12:51;6.40;99.90
75262;DHT22;63859;51.064;4.580;2023-11-18T06:15:18;6.40;99.90
75262;DHT22;63859;51.064;4.580;2023-11-18T06:17:44;6.40;99.90
75262;DHT22;63859;51.064;4.580;2023-11-18T06:20:11;6.40;99.90
75262;DHT22;63859;51.064;4.580;2023-11-18T06:22:36;6.40;99.90
75262;DHT22;63859;51.064;4.580;2023-11-18T06:25:02;6.50;99.90
75262;DHT22;63859;51.064;4.580;2023-11-18T06:27:28;6.50;99.90
75262;DHT22;63859;51.064;4.580;2023-11-18T06:29:55;6.50;99.90
75262;DHT22;63859;51.064;4.580;2023-11-18T06:32:21;6.50;99.90
75262;DHT22;63859;51.064;4.580;2023-11-18T06:34:47;6.50;99.90
75262;DHT22;63859;51.064;4.580;2023-11-18T06:37:14;6.60;99.90
75262;DHT22;63859;51.064;4.580;2023-11-18T06:39:43;6.60;99.90
75262;DHT22;63859;51.064;4.580;2023-11-18T06:42:11;6.60;99.90
75262;DHT22;63859;51.064;4.580;2023-11-18T06:44:37;6.60;99.90
75262;DHT22;63859;51.064;4.580;2023-11-18T06:47:03;6.60;99.90
75262;DHT22;63859;51.064;4.580;2023-11-18T06:49:30;6.60;99.90
75262;DHT22;63859;51.064;4.580;2023-11-18T06:52:00;6.70;99.90
75262;DHT22;63859;51.064;4.580;2023-11-18T06:54:31;6.70;99.90
75262;DHT22;63859;51.064;4.580;2023-11-18T06:56:58;6.70;99.90
75262;DHT22;63859;51.064;4.580;2023-11-18T06:59:24;6.70;99.90
75262;DHT22;63859;51.064;4.580;2023-11-18T07:01:50;6.70;99.90
75262;DHT22;63859;51.064;4.580;2023-11-18T07:04:15;6.70;99.90
75262;DHT22;63859;51.064;4.580;2023-11-18T07:06:41;6.70;99.90
75262;DHT22;63859;51.064;4.580;2023-11-18T07:09:09;6.70;99.90
75262;DHT22;63859;51.064;4.580;2023-11-18T07:11:47;6.70;99.90
75262;DHT22;63859;51.064;4.580;2023-11-18T07:14:13;6.80;99.90
75262;DHT22;63859;51.064;4.580;2023-11-18T07:16:40;6.80;99.90
75262;DHT22;63859;51.064;4.580;2023-11-18T07:19:07;6.80;99.90
75262;DHT22;63859;51.064;4.580;2023-11-18T07:21:34;6.80;99.90
75262;DHT22;63859;51.064;4.580;2023-11-18T07:24:00;6.80;99.90
75262;DHT22;63859;51.064;4.580;2023-11-18T07:26:27;6.90;99.90
75262;DHT22;63859;51.064;4.580;2023-11-18T07:28:53;6.90;99.90
75262;DHT22;63859;51.064;4.580;2023-11-18T07:31:18;6.90;99.90
75262;DHT22;63859;51.064;4.580;2023-11-18T07:33:45;6.90;99.90
75262;DHT22;63859;51.064;4.580;2023-11-18T07:36:15;7.00;99.90
75262;DHT22;63859;51.064;4.580;2023-11-18T07:38:41;6.90;99.90
75262;DHT22;63859;51.064;4.580;2023-11-18T07:41:07;7.00;99.90
75262;DHT22;63859;51.064;4.580;2023-11-18T07:43:34;7.00;99.90
75262;DHT22;63859;51.064;4.580;2023-11-18T07:46:02;7.10;99.90
75262;DHT22;63859;51.064;4.580;2023-11-18T07:48:28;7.10;99.90
75262;DHT22;63859;51.064;4.580;2023-11-18T07:50:53;7.00;99.90
75262;DHT22;63859;51.064;4.580;2023-11-18T07:53:19;7.10;99.90
75262;DHT22;63859;51.064;4.580;2023-11-18T07:55:45;7.10;99.90
75262;DHT22;63859;51.064;4.580;2023-11-18T07:58:11;7.10;99.90
75262;DHT22;63859;51.064;4.580;2023-11-18T08:00:41;7.10;99.90
75262;DHT22;63859;51.064;4.580;2023-11-18T08:03:10;7.10;99.90
75262;DHT22;63859;51.064;4.580;2023-11-18T08:08:08;7.20;99.90
75262;DHT22;63859;51.064;4.580;2023-11-18T08:10:36;7.30;99.90
75262;DHT22;63859;51.064;4.580;2023-11-18T08:13:05;7.20;99.90
75262;DHT22;63859;51.064;4.580;2023-11-18T08:15:39;7.30;99.90
75262;DHT22;63859;51.064;4.580;2023-11-18T08:18:06;7.30;99.90
75262;DHT22;63859;51.064;4.580;2023-11-18T08:20:32;7.40;99.90
75262;DHT22;63859;51.064;4.580;2023-11-18T08:23:17;7.40;99.90
75262;DHT22;63859;51.064;4.580;2023-11-18T08:25:44;7.40;99.90
75262;DHT22;63859;51.064;4.580;2023-11-18T08:28:12;7.40;99.90
75262;DHT22;63859;51.064;4.580;2023-11-18T08:30:39;7.50;99.90
75262;DHT22;63859;51.064;4.580;2023-11-18T08:33:05;7.50;99.90
75262;DHT22;63859;51.064;4.580;2023-11-18T08:35:37;7.50;99.90
75262;DHT22;63859;51.064;4.580;2023-11-18T08:38:02;7.50;99.90
75262;DHT22;63859;51.064;4.580;2023-11-18T08:40:30;7.50;99.90
75262;DHT22;63859;51.064;4.580;2023-11-18T08:42:55;7.60;99.90
75262;DHT22;63859;51.064;4.580;2023-11-18T08:45:30;7.60;99.90
75262;DHT22;63859;51.064;4.580;2023-11-18T08:47:59;7.60;99.90
75262;DHT22;63859;51.064;4.580;2023-11-18T08:50:29;7.60;99.90
75262;DHT22;63859;51.064;4.580;2023-11-18T08:52:56;7.60;99.90
75262;DHT22;63859;51.064;4.580;2023-11-18T08:55:29;7.70;99.90
75262;DHT22;63859;51.064;4.580;2023-11-18T08:58:16;7.60;99.90
75262;DHT22;63859;51.064;4.580;2023-11-18T09:00:58;7.70;99.90
75262;DHT22;63859;51.064;4.580;2023-11-18T09:03:41;7.70;99.90
75262;DHT22;63859;51.064;4.580;2023-11-18T09:06:14;7.70;99.90
75262;DHT22;63859;51.064;4.580;2023-11-18T09:08:44;7.70;99.90
75262;DHT22;63859;51.064;4.580;2023-11-18T09:11:12;7.70;99.90
75262;DHT22;63859;51.064;4.580;2023-11-18T09:13:44;7.80;99.90
75262;DHT22;63859;51.064;4.580;2023-11-18T09:16:13;7.70;99.90
75262;DHT22;63859;51.064;4.580;2023-11-18T09:18:58;7.70;99.90
75262;DHT22;63859;51.064;4.580;2023-11-18T09:21:27;7.80;99.90
75262;DHT22;63859;51.064;4.580;2023-11-18T09:23:54;7.80;99.90
75262;DHT22;63859;51.064;4.580;2023-11-18T09:26:22;7.80;99.90
75262;DHT22;63859;51.064;4.580;2023-11-18T09:28:47;7.80;99.90
75262;DHT22;63859;51.064;4.580;2023-11-18T09:31:15;7.80;99.90
75262;DHT22;63859;51.064;4.580;2023-11-18T09:33:42;7.90;99.90
75262;DHT22;63859;51.064;4.580;2023-11-18T09:36:17;7.90;99.90
75262;DHT22;63859;51.064;4.580;2023-11-18T09:38:44;7.90;99.90
75262;DHT22;63859;51.064;4.580;2023-11-18T09:41:12;7.90;99.90
75262;DHT22;63859;51.064;4.580;2023-11-18T09:43:42;8.00;99.90
75262;DHT22;63859;51.064;4.580;2023-11-18T09:46:14;8.00;99.90
75262;DHT22;63859;51.064;4.580;2023-11-18T09:48:46;7.90;99.90
75262;DHT22;63859;51.064;4.580;2023-11-18T09:51:22;8.00;99.90
75262;DHT22;63859;51.064;4.580;2023-11-18T09:53:53;8.00;99.90
75262;DHT22;63859;51.064;4.580;2023-11-18T10:01:43;8.00;99.90
75262;DHT22;63859;51.064;4.580;2023-11-18T10:04:13;8.00;99.90
75262;DHT22;63859;51.064;4.580;2023-11-18T10:06:39;8.00;99.90
75262;DHT22;63859;51.064;4.580;2023-11-18T10:09:06;8.10;99.90
75262;DHT22;63859;51.064;4.580;2023-11-18T10:11:47;8.10;99.90
75262;DHT22;63859;51.064;4.580;2023-11-18T10:14:16;8.10;99.90
75262;DHT22;63859;51.064;4.580;2023-11-18T10:16:45;8.10;99.90
75262;DHT22;63859;51.064;4.580;2023-11-18T10:19:15;8.10;99.90
75262;DHT22;63859;51.064;4.580;2023-11-18T10:21:43;8.10;99.90
75262;DHT22;63859;51.064;4.580;2023-11-18T10:24:08;8.10;99.90
75262;DHT22;63859;51.064;4.580;2023-11-18T10:26:41;8.10;99.90
75262;DHT22;63859;51.064;4.580;2023-11-18T10:29:09;8.10;99.90
75262;DHT22;63859;51.064;4.580;2023-11-18T10:31:36;8.20;99.90
75262;DHT22;63859;51.064;4.580;2023-11-18T10:34:03;8.20;99.90
75262;DHT22;63859;51.064;4.580;2023-11-18T10:36:29;8.20;99.90
75262;DHT22;63859;51.064;4.580;2023-11-18T10:38:58;8.20;99.90
75262;DHT22;63859;51.064;4.580;2023-11-18T10:41:26;8.20;99.90
75262;DHT22;63859;51.064;4.580;2023-11-18T10:44:12;8.20;99.90
75262;DHT22;63859;51.064;4.580;2023-11-18T10:46:50;8.20;99.90
75262;DHT22;63859;51.064;4.580;2023-11-18T10:49:16;8.20;99.90
75262;DHT22;63859;51.064;4.580;2023-11-18T10:51:44;8.20;99.90
75262;DHT22;63859;51.064;4.580;2023-11-18T10:54:13;8.20;99.90
75262;DHT22;63859;51.064;4.580;2023-11-18T10:56:49;8.20;99.90
75262;DHT22;63859;51.064;4.580;2023-11-18T10:59:15;8.20;99.90
75262;DHT22;63859;51.064;4.580;2023-11-18T11:01:44;8.20;99.90
75262;DHT22;63859;51.064;4.580;2023-11-18T11:04:13;8.20;99.90
75262;DHT22;63859;51.064;4.580;2023-11-18T11:06:45;8.20;99.90
75262;DHT22;63859;51.064;4.580;2023-11-18T11:09:18;8.20;99.90
75262;DHT22;63859;51.064;4.580;2023-11-18T11:14:23;8.30;99.90
75262;DHT22;63859;51.064;4.580;2023-11-18T11:17:03;8.30;99.90
75262;DHT22;63859;51.064;4.580;2023-11-18T11:22:25;8.30;99.90
75262;DHT22;63859;51.064;4.580;2023-11-18T11:25:14;8.30;99.90
75262;DHT22;63859;51.064;4.580;2023-11-18T11:28:00;8.30;99.90
75262;DHT22;63859;51.064;4.580;2023-11-18T11:30:45;8.30;99.90
75262;DHT22;63859;51.064;4.580;2023-11-18T11:33:33;8.30;99.90
75262;DHT22;63859;51.064;4.580;2023-11-18T11:36:11;8.30;99.90
75262;DHT22;63859;51.064;4.580;2023-11-18T11:38:37;8.30;99.90
75262;DHT22;63859;51.064;4.580;2023-11-18T11:41:04;8.30;99.90
75262;DHT22;63859;51.064;4.580;2023-11-18T11:43:32;8.40;99.90
75262;DHT22;63859;51.064;4.580;2023-11-18T11:46:03;8.40;99.90
75262;DHT22;63859;51.064;4.580;2023-11-18T11:48:37;8.40;99.90
75262;DHT22;63859;51.064;4.580;2023-11-18T11:54:01;8.40;99.90
75262;DHT22;63859;51.064;4.580;2023-11-18T11:56:43;8.40;99.90
75262;DHT22;63859;51.064;4.580;2023-11-18T11:59:09;8.40;99.90
75262;DHT22;63859;51.064;4.580;2023-11-18T12:01:37;8.50;99.90
75262;DHT22;63859;51.064;4.580;2023-11-18T12:04:04;8.60;99.90
75262;DHT22;63859;51.064;4.580;2023-11-18T12:06:33;8.50;99.90
75262;DHT22;63859;51.064;4.580;2023-11-18T12:09:00;8.60;99.90
75262;DHT22;63859;51.064;4.580;2023-11-18T12:11:34;8.60;99.90
75262;DHT22;63859;51.064;4.580;2023-11-18T12:14:03;8.60;99.90
75262;DHT22;63859;51.064;4.580;2023-11-18T12:17:01;8.60;99.90
75262;DHT22;63859;51.064;4.580;2023-11-18T12:19:34;8.60;99.90
75262;DHT22;63859;51.064;4.580;2023-11-18T12:22:22;8.60;99.90
75262;DHT22;63859;51.064;4.580;2023-11-18T12:27:45;8.60;99.90
75262;DHT22;63859;51.064;4.580;2023-11-18T12:32:58;8.60;99.90
75262;DHT22;63859;51.064;4.580;2023-11-18T12:35:25;8.60;99.90
75262;DHT22;63859;51.064;4.580;2023-11-18T12:41:01;8.70;99.90
75262;DHT22;63859;51.064;4.580;2023-11-18T12:43:53;8.70;99.90
75262;DHT22;63859;51.064;4.580;2023-11-18T12:46:50;8.70;99.90
75262;DHT22;63859;51.064;4.580;2023-11-18T12:49:19;8.70;99.90
75262;DHT22;63859;51.064;4.580;2023-11-18T12:51:52;8.70;99.90
75262;DHT22;63859;51.064;4.580;2023-11-18T12:54:28;8.70;99.90
75262;DHT22;63859;51.064;4.580;2023-11-18T12:56:56;8.70;99.90
75262;DHT22;63859;51.064;4.580;2023-11-18T12:59:22;8.70;99.90
75262;DHT22;63859;51.064;4.580;2023-11-18T13:01:51;8.70;99.90
75262;DHT22;63859;51.064;4.580;2023-11-18T13:04:22;8.70;99.90
75262;DHT22;63859;51.064;4.580;2023-11-18T13:06:50;8.70;99.90
75262;DHT22;63859;51.064;4.580;2023-11-18T13:09:17;8.70;99.90
75262;DHT22;63859;51.064;4.580;2023-11-18T13:11:58;8.70;99.90
75262;DHT22;63859;51.064;4.580;2023-11-18T13:14:27;8.70;99.90
75262;DHT22;63859;51.064;4.580;2023-11-18T13:16:56;8.70;99.90
75262;DHT22;63859;51.064;4.580;2023-11-18T13:19:29;8.70;99.90
75262;DHT22;63859;51.064;4.580;2023-11-18T13:21:58;8.70;99.90
75262;DHT22;63859;51.064;4.580;2023-11-18T13:24:28;8.70;99.90
75262;DHT22;63859;51.064;4.580;2023-11-18T13:26:55;8.70;99.90
75262;DHT22;63859;51.064;4.580;2023-11-18T13:29:23;8.80;99.90
75262;DHT22;63859;51.064;4.580;2023-11-18T13:31:50;8.80;99.90
75262;DHT22;63859;51.064;4.580;2023-11-18T13:34:19;8.80;99.90
75262;DHT22;63859;51.064;4.580;2023-11-18T13:36:48;8.80;99.90
75262;DHT22;63859;51.064;4.580;2023-11-18T13:39:20;8.80;99.90
75262;DHT22;63859;51.064;4.580;2023-11-18T13:41:49;8.80;99.90
75262;DHT22;63859;51.064;4.580;2023-11-18T13:44:34;8.80;99.90
75262;DHT22;63859;51.064;4.580;2023-11-18T13:47:00;8.90;99.90
75262;DHT22;63859;51.064;4.580;2023-11-18T13:49:33;8.80;99.90
75262;DHT22;63859;51.064;4.580;2023-11-18T13:52:03;8.90;99.90
75262;DHT22;63859;51.064;4.580;2023-11-18T13:54:29;8.90;99.90
75262;DHT22;63859;51.064;4.580;2023-11-18T13:56:58;8.90;99.90
75262;DHT22;63859;51.064;4.580;2023-11-18T13:59:25;8.90;99.90
75262;DHT22;63859;51.064;4.580;2023-11-18T14:01:55;9.00;99.90
75262;DHT22;63859;51.064;4.580;2023-11-18T14:04:24;9.00;99.90
75262;DHT22;63859;51.064;4.580;2023-11-18T14:06:56;9.00;99.90
75262;DHT22;63859;51.064;4.580;2023-11-18T14:09:22;9.00;99.90
75262;DHT22;63859;51.064;4.580;2023-11-18T14:11:51;9.00;99.90
75262;DHT22;63859;51.064;4.580;2023-11-18T14:14:17;9.00;99.90
75262;DHT22;63859;51.064;4.580;2023-11-18T14:16:43;9.00;99.90
75262;DHT22;63859;51.064;4.580;2023-11-18T14:19:09;9.00;99.90
75262;DHT22;63859;51.064;4.580;2023-11-18T14:21:36;9.00;99.90
75262;DHT22;63859;51.064;4.580;2023-11-18T14:24:02;9.10;99.90
75262;DHT22;63859;51.064;4.580;2023-11-18T14:26:29;9.10;99.90
75262;DHT22;63859;51.064;4.580;2023-11-18T14:28:56;9.10;99.90
75262;DHT22;63859;51.064;4.580;2023-11-18T14:31:24;9.10;99.90
75262;DHT22;63859;51.064;4.580;2023-11-18T14:33:50;9.10;99.90
75262;DHT22;63859;51.064;4.580;2023-11-18T14:36:19;9.10;99.90
75262;DHT22;63859;51.064;4.580;2023-11-18T14:38:45;9.20;99.90
75262;DHT22;63859;51.064;4.580;2023-11-18T14:41:12;9.20;99.90
75262;DHT22;63859;51.064;4.580;2023-11-18T14:43:38;9.20;99.90
75262;DHT22;63859;51.064;4.580;2023-11-18T14:46:04;9.20;99.90
75262;DHT22;63859;51.064;4.580;2023-11-18T14:48:30;9.20;99.90
75262;DHT22;63859;51.064;4.580;2023-11-18T14:50:55;9.20;99.90
75262;DHT22;63859;51.064;4.580;2023-11-18T14:53:22;9.30;99.90
75262;DHT22;63859;51.064;4.580;2023-11-18T14:55:48;9.30;99.90
75262;DHT22;63859;51.064;4.580;2023-11-18T14:58:14;9.30;99.90
75262;DHT22;63859;51.064;4.580;2023-11-18T15:00:40;9.40;99.90
75262;DHT22;63859;51.064;4.580;2023-11-18T15:03:08;9.30;99.90
75262;DHT22;63859;51.064;4.580;2023-11-18T15:05:33;9.40;99.90
75262;DHT22;63859;51.064;4.580;2023-11-18T15:08:00;9.40;99.90
75262;DHT22;63859;51.064;4.580;2023-11-18T15:10:27;9.40;99.90
75262;DHT22;63859;51.064;4.580;2023-11-18T15:12:57;9.40;99.90
75262;DHT22;63859;51.064;4.580;2023-11-18T15:15:30;9.40;99.90
75262;DHT22;63859;51.064;4.580;2023-11-18T15:18:05;9.50;99.90
75262;DHT22;63859;51.064;4.580;2023-11-18T15:20:34;9.50;99.90
75262;DHT22;63859;51.064;4.580;2023-11-18T15:23:00;9.50;99.90
75262;DHT22;63859;51.064;4.580;2023-11-18T15:25:26;9.50;99.90
75262;DHT22;63859;51.064;4.580;2023-11-18T15:27:52;9.60;99.90
75262;DHT22;63859;51.064;4.580;2023-11-18T15:30:18;9.60;99.90
75262;DHT22;63859;51.064;4.580;2023-11-18T15:32:45;9.60;99.90
75262;DHT22;63859;51.064;4.580;2023-11-18T15:35:12;9.70;99.90
75262;DHT22;63859;51.064;4.580;2023-11-18T15:37:39;9.70;99.90
75262;DHT22;63859;51.064;4.580;2023-11-18T15:40:10;9.70;99.90
75262;DHT22;63859;51.064;4.580;2023-11-18T15:42:42;9.70;99.90
75262;DHT22;63859;51.064;4.580;2023-11-18T15:45:12;9.70;99.90
75262;DHT22;63859;51.064;4.580;2023-11-18T15:47:39;9.80;99.90
75262;DHT22;63859;51.064;4.580;2023-11-18T15:50:06;9.80;99.90
75262;DHT22;63859;51.064;4.580;2023-11-18T15:52:35;9.80;99.90
75262;DHT22;63859;51.064;4.580;2023-11-18T15:55:02;9.80;99.90
75262;DHT22;63859;51.064;4.580;2023-11-18T15:57:37;9.90;99.90
75262;DHT22;63859;51.064;4.580;2023-11-18T16:00:07;9.80;99.90
75262;DHT22;63859;51.064;4.580;2023-11-18T16:02:41;9.80;99.90
75262;DHT22;63859;51.064;4.580;2023-11-18T16:05:08;9.90;99.90
75262;DHT22;63859;51.064;4.580;2023-11-18T16:07:34;10.00;99.90
75262;DHT22;63859;51.064;4.580;2023-11-18T16:10:00;10.00;99.90
75262;DHT22;63859;51.064;4.580;2023-11-18T16:12:26;10.00;99.90
75262;DHT22;63859;51.064;4.580;2023-11-18T16:14:55;10.00;99.90
75262;DHT22;63859;51.064;4.580;2023-11-18T16:17:22;10.10;99.90
75262;DHT22;63859;51.064;4.580;2023-11-18T16:19:48;10.10;99.90
75262;DHT22;63859;51.064;4.580;2023-11-18T16:22:13;10.10;99.90